Time;durP1;ratioP1;P1;durP2;ratioP2;P2;SDS_P1;SDS_P2;PMS_P1;PMS_P2;Temp;Humidity;BMP_temperature;BMP_pressure;BME280_temperature;BME280_humidity;BME280_pressure;Samples;Min_cycle;Max_cycle;Signal;HPM_P1;HPM_P2
2023/03/03 00:02:38;;;;;;;;;50.25;45.00;;;;;;;;6488521;39;8910;-67
2023/03/03 00:08:53;;;;;;;;;52.00;44.50;;;;;;;;6489154;39;8945;-66
2023/03/03 00:14:57;;;;;;;;;56.75;50.75;;;;;;;;6487504;46;8927;-66
2023/03/03 00:21:01;;;;;;;;;61.75;48.50;;;;;;;;6488531;39;8893;-66
2023/03/03 00:27:34;;;;;;;;;48.75;44.75;;;;;;;;6487979;39;8895;-67
2023/03/03 00:33:57;;;;;;;;;56.50;46.00;;;;;;;;6488205;46;8901;-66
2023/03/03 00:40:24;;;;;;;;;55.00;44.25;;;;;;;;6487761;39;8883;-67
2023/03/03 00:46:29;;;;;;;;;50.75;43.25;;;;;;;;6488271;39;8869;-67
2023/03/03 00:52:39;;;;;;;;;51.00;45.50;;;;;;;;6488130;46;8931;-66
2023/03/03 00:58:46;;;;;;;;;59.50;48.50;;;;;;;;6488305;31;9544;-66
2023/03/03 01:04:56;;;;;;;;;66.00;50.00;;;;;;;;6487286;39;8994;-65
2023/03/03 01:11:05;;;;;;;;;57.00;47.50;;;;;;;;6488172;31;9008;-66
2023/03/03 01:17:13;;;;;;;;;58.50;48.00;;;;;;;;6532595;31;9003;-66
2023/03/03 01:23:17;;;;;;;;;51.25;43.00;;;;;;;;6487933;39;9068;-66
2023/03/03 01:29:21;;;;;;;;;62.50;50.00;;;;;;;;6486748;46;8910;-67
2023/03/03 01:35:28;;;;;;;;;66.75;51.25;;;;;;;;6488317;39;9514;-67
2023/03/03 01:41:34;;;;;;;;;61.50;51.50;;;;;;;;6487083;31;8908;-67
2023/03/03 01:47:47;;;;;;;;;58.00;44.25;;;;;;;;6487749;39;8965;-67
2023/03/03 01:53:57;;;;;;;;;65.50;50.50;;;;;;;;6487463;46;8867;-65
2023/03/03 02:00:04;;;;;;;;;58.00;45.50;;;;;;;;6487016;39;8874;-66
2023/03/03 02:06:35;;;;;;;;;53.00;47.25;;;;;;;;6487153;39;9686;-67
2023/03/03 02:12:46;;;;;;;;;49.75;44.75;;;;;;;;6487661;39;8966;-65
2023/03/03 02:18:50;;;;;;;;;56.25;50.50;;;;;;;;6488442;39;8831;-66
2023/03/03 02:25:02;;;;;;;;;66.00;50.75;;;;;;;;6491828;47;8846;-67
2023/03/03 02:31:16;;;;;;;;;50.50;43.00;;;;;;;;6487335;31;8871;-66
2023/03/03 02:37:20;;;;;;;;;61.50;46.75;;;;;;;;6487336;39;9018;-66
2023/03/03 02:43:41;;;;;;;;;57.25;49.50;;;;;;;;6486649;39;9673;-65
2023/03/03 02:49:46;;;;;;;;;57.50;47.25;;;;;;;;6486222;47;8858;-66
2023/03/03 02:55:51;;;;;;;;;56.00;47.50;;;;;;;;6486267;47;8905;-66
2023/03/03 03:01:55;;;;;;;;;53.00;46.25;;;;;;;;6486832;47;8886;-65
2023/03/03 03:07:59;;;;;;;;;54.25;42.75;;;;;;;;6486841;39;8927;-67
2023/03/03 03:14:09;;;;;;;;;54.50;44.75;;;;;;;;6488798;46;8941;-66
2023/03/03 03:20:14;;;;;;;;;51.75;45.50;;;;;;;;6488644;39;8925;-66
2023/03/03 03:26:19;;;;;;;;;54.50;46.50;;;;;;;;6488964;39;8874;-66
2023/03/03 03:32:25;;;;;;;;;47.50;42.25;;;;;;;;6488881;39;9645;-65
2023/03/03 03:38:35;;;;;;;;;52.00;43.75;;;;;;;;6488000;31;9020;-65
2023/03/03 03:44:41;;;;;;;;;55.75;46.50;;;;;;;;6489150;39;8880;-67
2023/03/03 03:50:48;;;;;;;;;53.75;47.00;;;;;;;;6487810;46;8926;-67
2023/03/03 03:56:50;;;;;;;;;48.00;43.50;;;;;;;;6488330;39;8907;-67
2023/03/03 04:02:55;;;;;;;;;55.00;46.75;;;;;;;;6488359;39;8929;-67
2023/03/03 04:09:01;;;;;;;;;57.50;45.50;;;;;;;;6487009;31;8931;-67
2023/03/03 04:15:07;;;;;;;;;47.00;40.75;;;;;;;;6353849;31;10001266;-68
2023/03/03 04:21:13;;;;;;;;;53.50;47.75;;;;;;;;6487801;46;8890;-65
2023/03/03 04:27:21;;;;;;;;;55.00;46.00;;;;;;;;6487553;39;8872;-67
2023/03/03 04:33:25;;;;;;;;;45.50;39.50;;;;;;;;6487763;39;9120;-68
2023/03/03 04:39:29;;;;;;;;;52.25;45.00;;;;;;;;6495917;46;8907;-67
2023/03/03 04:45:32;;;;;;;;;57.00;50.25;;;;;;;;6491255;39;8842;-68
2023/03/03 04:51:36;;;;;;;;;58.50;47.75;;;;;;;;6488157;39;8948;-67
2023/03/03 04:57:45;;;;;;;;;58.00;45.00;;;;;;;;6488089;31;8924;-68
2023/03/03 05:03:48;;;;;;;;;54.25;47.25;;;;;;;;6469860;46;9013;-59
2023/03/03 12:19:14;;;;;;;;;60.50;48.00;;;;;;;;6489786;39;9007;-61
2023/03/03 12:26:11;;;;;;;;;75.00;58.75;;;;;;;;6488079;39;8913;-59
2023/03/03 12:33:33;;;;;;;;;75.75;60.00;;;;;;;;6487663;39;9637;-59
2023/03/03 12:40:15;;;;;;;;;71.00;59.25;;;;;;;;6488478;39;8998;-59
2023/03/03 12:47:32;;;;;;;;;66.00;54.00;;;;;;;;6487463;39;9550;-60
2023/03/03 12:54:41;;;;;;;;;72.50;54.25;;;;;;;;6487891;39;9626;-60
2023/03/03 13:01:10;;;;;;;;;62.75;51.25;;;;;;;;6488045;31;9004;-60
2023/03/03 13:08:28;;;;;;;;;59.25;50.75;;;;;;;;6490474;31;9000;-60
2023/03/03 13:15:35;;;;;;;;;60.80;47.80;;;;;;;;6308824;31;10001622;-61
2023/03/03 13:22:48;;;;;;;;;68.75;55.75;;;;;;;;6490921;39;8939;-58
2023/03/03 13:29:32;;;;;;;;;66.00;52.25;;;;;;;;6487733;39;8941;-62
2023/03/03 13:36:30;;;;;;;;;65.75;54.00;;;;;;;;6489915;39;9909;-60
2023/03/03 13:43:30;;;;;;;;;68.25;54.50;;;;;;;;6490038;39;8912;-59
2023/03/03 13:50:03;;;;;;;;;62.50;51.00;;;;;;;;6492400;36;8968;-59
2023/03/03 13:57:02;;;;;;;;;63.25;52.00;;;;;;;;6489356;39;9554;-59
2023/03/03 14:03:58;;;;;;;;;57.75;48.50;;;;;;;;6491089;39;9595;-59
2023/03/03 14:10:34;;;;;;;;;67.75;53.25;;;;;;;;6495897;31;8853;-59
2023/03/03 14:17:11;;;;;;;;;67.50;55.50;;;;;;;;6490752;39;8960;-61
2023/03/03 14:23:43;;;;;;;;;56.25;46.50;;;;;;;;6491325;31;8869;-60
2023/03/03 14:29:46;;;;;;;;;64.25;52.00;;;;;;;;6489303;31;8897;-60
2023/03/03 14:36:11;;;;;;;;;60.75;50.00;;;;;;;;6489671;47;9013;-59
2023/03/03 14:42:30;;;;;;;;;75.00;60.75;;;;;;;;6489929;47;8913;-60
2023/03/03 14:48:50;;;;;;;;;65.75;51.75;;;;;;;;6488447;39;8857;-59
2023/03/03 14:54:56;;;;;;;;;64.50;50.25;;;;;;;;6489339;39;9631;-60
2023/03/03 15:01:25;;;;;;;;;64.25;50.50;;;;;;;;6489777;31;8925;-59
2023/03/03 15:07:37;;;;;;;;;72.00;53.25;;;;;;;;6492265;31;8985;-60
2023/03/03 15:13:39;;;;;;;;;59.50;48.25;;;;;;;;6491510;39;9007;-60
2023/03/03 15:19:50;;;;;;;;;68.75;55.75;;;;;;;;6492159;39;8885;-60
2023/03/03 15:26:18;;;;;;;;;63.75;52.25;;;;;;;;6492130;39;8897;-61
2023/03/03 15:32:28;;;;;;;;;75.75;59.50;;;;;;;;6491897;46;8846;-59
2023/03/03 15:38:46;;;;;;;;;86.75;66.25;;;;;;;;6491687;46;8920;-59
2023/03/03 15:45:02;;;;;;;;;70.75;57.25;;;;;;;;6491930;39;8925;-60
2023/03/03 15:51:40;;;;;;;;;67.50;55.00;;;;;;;;6492606;39;8940;-61
2023/03/03 15:58:35;;;;;;;;;75.00;56.00;;;;;;;;6491334;36;8854;-61
2023/03/03 16:05:00;;;;;;;;;63.25;53.00;;;;;;;;6491276;46;8905;-61
2023/03/03 16:11:16;;;;;;;;;70.50;56.50;;;;;;;;6492204;39;8985;-61
2023/03/03 16:17:33;;;;;;;;;71.75;53.00;;;;;;;;6490643;39;8961;-59
2023/03/03 16:23:56;;;;;;;;;59.25;48.75;;;;;;;;6489777;31;8866;-59
2023/03/03 16:30:39;;;;;;;;;76.75;58.75;;;;;;;;6490158;39;8858;-60
2023/03/03 16:37:02;;;;;;;;;64.50;52.50;;;;;;;;6490067;39;8962;-61
2023/03/03 16:43:14;;;;;;;;;71.25;56.75;;;;;;;;6490273;39;8871;-60
2023/03/03 16:49:42;;;;;;;;;57.25;41.75;;;;;;;;6490134;39;8874;-59
2023/03/03 16:56:11;;;;;;;;;71.00;55.25;;;;;;;;6489679;31;9001;-59
2023/03/03 17:02:45;;;;;;;;;70.75;55.75;;;;;;;;6489686;39;8942;-61
2023/03/03 17:09:02;;;;;;;;;75.75;61.00;;;;;;;;6488827;46;8899;-61
2023/03/03 17:15:16;;;;;;;;;71.00;54.00;;;;;;;;6490042;31;8992;-60
2023/03/03 17:21:27;;;;;;;;;69.75;58.50;;;;;;;;6489794;39;8947;-60
2023/03/03 17:27:49;;;;;;;;;73.75;59.25;;;;;;;;6489574;39;8881;-60
2023/03/03 17:34:15;;;;;;;;;80.50;62.00;;;;;;;;6488696;46;8903;-61
2023/03/03 17:41:02;;;;;;;;;77.50;61.50;;;;;;;;6489448;46;8893;-59
2023/03/03 17:47:12;;;;;;;;;71.25;59.00;;;;;;;;6488438;46;8847;-61
2023/03/03 17:53:38;;;;;;;;;78.25;58.75;;;;;;;;6488997;46;8874;-61
2023/03/03 17:59:40;;;;;;;;;78.75;63.50;;;;;;;;6489646;39;8927;-59
2023/03/03 18:06:01;;;;;;;;;71.00;59.75;;;;;;;;6489298;39;8878;-59
2023/03/03 18:12:09;;;;;;;;;78.75;64.75;;;;;;;;6489254;39;9570;-60
2023/03/03 18:18:25;;;;;;;;;80.50;62.75;;;;;;;;6489340;47;8929;-61
2023/03/03 18:24:32;;;;;;;;;84.25;63.00;;;;;;;;6488870;47;8893;-60
2023/03/03 18:31:03;;;;;;;;;78.00;61.50;;;;;;;;6489272;39;8851;-59
2023/03/03 18:37:36;;;;;;;;;79.25;62.25;;;;;;;;6489281;39;8859;-60
2023/03/03 18:43:44;;;;;;;;;84.00;65.00;;;;;;;;6490549;39;8870;-60
2023/03/03 18:49:47;;;;;;;;;75.25;61.00;;;;;;;;6490435;39;8875;-60
2023/03/03 18:55:52;;;;;;;;;79.50;63.00;;;;;;;;6490772;39;8944;-60
2023/03/03 19:02:10;;;;;;;;;78.00;63.25;;;;;;;;6490484;46;8935;-59
2023/03/03 19:08:23;;;;;;;;;79.75;59.75;;;;;;;;6490890;31;8870;-60
2023/03/03 19:14:33;;;;;;;;;82.25;66.00;;;;;;;;6490821;39;8962;-61
2023/03/03 19:20:40;;;;;;;;;77.50;61.25;;;;;;;;6490846;31;9604;-58
2023/03/03 19:27:07;;;;;;;;;83.25;63.50;;;;;;;;6490135;39;9740;-60
2023/03/03 19:33:26;;;;;;;;;79.67;62.00;;;;;;;;6490714;39;9102;-60
2023/03/03 19:39:57;;;;;;;;;75.00;62.75;;;;;;;;6490147;46;9008;-58
2023/03/03 19:46:36;;;;;;;;;87.25;68.00;;;;;;;;6489617;46;8902;-59
2023/03/03 19:52:56;;;;;;;;;81.00;63.25;;;;;;;;6489745;46;8906;-59
2023/03/03 19:59:02;;;;;;;;;88.75;67.25;;;;;;;;6490652;39;9592;-59
2023/03/03 20:05:19;;;;;;;;;81.75;63.00;;;;;;;;6489857;39;8915;-59
2023/03/03 20:11:46;;;;;;;;;82.00;63.25;;;;;;;;6489668;46;8867;-59
2023/03/03 20:18:08;;;;;;;;;83.00;63.75;;;;;;;;6490588;39;9567;-60
2023/03/03 20:24:42;;;;;;;;;90.50;70.50;;;;;;;;6489785;39;9565;-60
2023/03/03 20:30:48;;;;;;;;;85.25;67.75;;;;;;;;6489756;39;8863;-60
2023/03/03 20:37:11;;;;;;;;;86.75;67.50;;;;;;;;6489803;39;9017;-59
2023/03/03 20:43:42;;;;;;;;;87.25;65.75;;;;;;;;6489205;46;8918;-60
2023/03/03 20:50:19;;;;;;;;;87.00;69.50;;;;;;;;6489686;46;8988;-58
2023/03/03 20:56:51;;;;;;;;;87.00;66.25;;;;;;;;6488867;46;8903;-60
2023/03/03 21:02:55;;;;;;;;;87.50;68.75;;;;;;;;6489723;39;8948;-60
2023/03/03 21:08:58;;;;;;;;;83.00;65.25;;;;;;;;6489099;31;8891;-60
2023/03/03 21:15:06;;;;;;;;;88.25;70.25;;;;;;;;6489134;46;8910;-60
2023/03/03 21:21:09;;;;;;;;;77.50;62.75;;;;;;;;6488822;39;9043;-59
2023/03/03 21:27:24;;;;;;;;;86.25;67.25;;;;;;;;6489348;46;8888;-58
2023/03/03 21:33:44;;;;;;;;;83.50;64.00;;;;;;;;6488713;46;8954;-60
2023/03/03 21:40:23;;;;;;;;;83.75;66.50;;;;;;;;6488901;39;9564;-60
2023/03/03 21:46:26;;;;;;;;;91.25;71.25;;;;;;;;6489623;46;9359;-61
2023/03/03 21:52:29;;;;;;;;;89.50;69.75;;;;;;;;6488232;31;8886;-59
2023/03/03 21:58:33;;;;;;;;;88.67;69.00;;;;;;;;6489661;46;8878;-59
2023/03/03 22:04:39;;;;;;;;;92.33;70.33;;;;;;;;6488679;39;9649;-60
2023/03/03 22:10:42;;;;;;;;;82.75;65.00;;;;;;;;6489142;31;8855;-60
2023/03/03 22:16:44;;;;;;;;;87.67;67.33;;;;;;;;6488889;31;8969;-58
2023/03/03 22:22:46;;;;;;;;;88.67;68.33;;;;;;;;6488872;47;8912;-59
2023/03/03 22:28:49;;;;;;;;;87.25;68.25;;;;;;;;6489361;39;8862;-58
2023/03/03 22:34:51;;;;;;;;;79.25;65.75;;;;;;;;6486819;47;9039;-60
2023/03/03 22:40:54;;;;;;;;;83.67;67.33;;;;;;;;6488469;39;8958;-59
2023/03/03 22:46:56;;;;;;;;;92.67;71.67;;;;;;;;6488358;47;8835;-59
2023/03/03 22:52:59;;;;;;;;;83.00;65.50;;;;;;;;6488743;47;8973;-59
2023/03/03 22:59:02;;;;;;;;;90.00;67.25;;;;;;;;6488256;39;8863;-58
2023/03/03 23:05:09;;;;;;;;;85.25;65.75;;;;;;;;6489347;39;8854;-59
2023/03/03 23:11:12;;;;;;;;;88.00;69.67;;;;;;;;6488590;47;8859;-59
2023/03/03 23:17:14;;;;;;;;;82.75;67.00;;;;;;;;6488384;39;8921;-59
2023/03/03 23:23:16;;;;;;;;;86.75;64.25;;;;;;;;6488258;39;8935;-59
2023/03/03 23:29:19;;;;;;;;;78.50;62.00;;;;;;;;6488906;46;9004;-59
2023/03/03 23:35:21;;;;;;;;;91.25;72.25;;;;;;;;6490466;39;9630;-60
2023/03/03 23:41:25;;;;;;;;;83.50;63.25;;;;;;;;6490710;39;8910;-59
2023/03/03 23:47:27;;;;;;;;;91.00;67.75;;;;;;;;6490702;39;8843;-59
2023/03/03 23:53:29;;;;;;;;;92.25;67.00;;;;;;;;6490235;39;9974;-59
2023/03/03 23:59:31;;;;;;;;;91.00;69.50;;;;;;;;6489669;39;8915;-59
